Horseshoe Lake, Arkansas
Current Conditions -  °F | °C
As of 2:15 PM on Sunday 23 Nov 2014 (Local Time) from KAWM Reporting Station
Overcast Overcast  
Wind Chill: 60°   Ceiling: 800
Heat Index: 60°   Visibility: 7mi
Dew Point: 60°   Wind: 5mph
Humidity: 100%   Direction: 180°S
Pressure: 29.33"   Gusts: NA
Location:  34.9503°N, 90.5078°W
Report Text: KAWM 232015Z AUTO 18004KT 7SM BKN008 BKN012 OVC019 16/16 A2933 RMK AO2 RAE15 CIG 006V010 P0001 T01560156
Loading
Personal Weather Stations






























Interactive Weather Map New forecast layout! Learn more

10-Day Weather Forecast

Advertisements
Track Severe Weather on mobile